sensor_id;sensor_type;location;lat;lon;timestamp;pressure;altitude;pressure_sealevel;temperature;humidity
74675;BME280;63200;48.810;12.352;2023-04-03T00:01:28;98130.44;;;2.61;64.19
74675;BME280;63200;48.810;12.352;2023-04-03T00:03:54;98118.13;;;2.53;64.22
74675;BME280;63200;48.810;12.352;2023-04-03T00:06:20;98137.00;;;2.65;63.96
74675;BME280;63200;48.810;12.352;2023-04-03T00:08:45;98131.66;;;2.65;62.90
74675;BME280;63200;48.810;12.352;2023-04-03T00:11:10;98129.78;;;2.65;63.09
74675;BME280;63200;48.810;12.352;2023-04-03T00:13:37;98137.78;;;2.72;63.78
74675;BME280;63200;48.810;12.352;2023-04-03T00:16:03;98120.75;;;2.60;63.92
74675;BME280;63200;48.810;12.352;2023-04-03T00:18:29;98138.22;;;2.69;64.75
74675;BME280;63200;48.810;12.352;2023-04-03T00:20:54;98111.13;;;2.52;64.59
74675;BME280;63200;48.810;12.352;2023-04-03T00:23:19;98134.91;;;2.67;64.98
74675;BME280;63200;48.810;12.352;2023-04-03T00:25:45;98138.44;;;2.67;65.17
74675;BME280;63200;48.810;12.352;2023-04-03T00:28:10;98132.47;;;2.65;65.50
74675;BME280;63200;48.810;12.352;2023-04-03T00:30:36;98126.13;;;2.60;65.59
74675;BME280;63200;48.810;12.352;2023-04-03T00:33:01;98132.69;;;2.64;65.48
74675;BME280;63200;48.810;12.352;2023-04-03T00:35:27;98138.03;;;2.64;65.85
74675;BME280;63200;48.810;12.352;2023-04-03T00:37:54;98135.97;;;2.66;64.97
74675;BME280;63200;48.810;12.352;2023-04-03T00:40:23;98134.13;;;2.66;64.96
74675;BME280;63200;48.810;12.352;2023-04-03T00:42:55;98140.91;;;2.69;65.66
74675;BME280;63200;48.810;12.352;2023-04-03T00:45:31;98129.78;;;2.65;65.81
74675;BME280;63200;48.810;12.352;2023-04-03T00:47:57;98131.25;;;2.61;65.48
74675;BME280;63200;48.810;12.352;2023-04-03T00:50:25;98141.34;;;2.66;66.02
74675;BME280;63200;48.810;12.352;2023-04-03T00:52:51;98108.88;;;2.49;65.48
74675;BME280;63200;48.810;12.352;2023-04-03T00:55:16;98134.34;;;2.65;65.35
74675;BME280;63200;48.810;12.352;2023-04-03T00:57:42;98138.66;;;2.66;65.95
74675;BME280;63200;48.810;12.352;2023-04-03T01:00:11;98136.13;;;2.71;65.80
74675;BME280;63200;48.810;12.352;2023-04-03T01:02:38;98128.75;;;2.66;65.79
74675;BME280;63200;48.810;12.352;2023-04-03T01:05:06;98136.56;;;2.68;66.09
74675;BME280;63200;48.810;12.352;2023-04-03T01:07:32;98139.25;;;2.68;65.57
74675;BME280;63200;48.810;12.352;2023-04-03T01:10:01;98139.69;;;2.65;65.27
74675;BME280;63200;48.810;12.352;2023-04-03T01:12:33;98138.91;;;2.58;64.80
74675;BME280;63200;48.810;12.352;2023-04-03T01:15:02;98141.16;;;2.61;65.60
74675;BME280;63200;48.810;12.352;2023-04-03T01:28:03;98141.16;;;2.61;65.85
74675;BME280;63200;48.810;12.352;2023-04-03T01:30:33;98141.34;;;2.59;65.57
74675;BME280;63200;48.810;12.352;2023-04-03T01:33:00;98112.84;;;2.40;65.24
74675;BME280;63200;48.810;12.352;2023-04-03T01:35:26;98143.22;;;2.59;65.81
74675;BME280;63200;48.810;12.352;2023-04-03T01:37:51;98142.41;;;2.58;65.25
74675;BME280;63200;48.810;12.352;2023-04-03T01:40:16;98098.88;;;2.31;65.75
74675;BME280;63200;48.810;12.352;2023-04-03T01:42:42;98146.53;;;2.61;66.27
74675;BME280;63200;48.810;12.352;2023-04-03T01:45:08;98144.88;;;2.60;65.53
74675;BME280;63200;48.810;12.352;2023-04-03T01:47:33;98117.38;;;2.39;65.59
74675;BME280;63200;48.810;12.352;2023-04-03T01:49:59;98121.06;;;2.45;65.58
74675;BME280;63200;48.810;12.352;2023-04-03T01:52:24;98141.22;;;2.54;65.11
74675;BME280;63200;48.810;12.352;2023-04-03T01:54:49;98142.19;;;2.60;65.67
74675;BME280;63200;48.810;12.352;2023-04-03T01:57:15;98101.56;;;2.31;64.80
74675;BME280;63200;48.810;12.352;2023-04-03T01:59:41;98145.97;;;2.52;64.99
74675;BME280;63200;48.810;12.352;2023-04-03T02:02:07;98145.97;;;2.52;64.88
74675;BME280;63200;48.810;12.352;2023-04-03T02:04:32;98148.00;;;2.57;65.13
74675;BME280;63200;48.810;12.352;2023-04-03T02:06:57;98133.84;;;2.43;64.60
74675;BME280;63200;48.810;12.352;2023-04-03T02:09:23;98149.66;;;2.51;65.00
74675;BME280;63200;48.810;12.352;2023-04-03T02:11:48;98147.00;;;2.51;65.13
74675;BME280;63200;48.810;12.352;2023-04-03T02:14:13;98149.88;;;2.49;65.79
74675;BME280;63200;48.810;12.352;2023-04-03T02:16:39;98151.53;;;2.50;65.29
74675;BME280;63200;48.810;12.352;2023-04-03T02:19:05;98151.97;;;2.47;65.52
74675;BME280;63200;48.810;12.352;2023-04-03T02:21:30;98121.97;;;2.32;65.87
74675;BME280;63200;48.810;12.352;2023-04-03T02:23:55;98153.22;;;2.45;65.92
74675;BME280;63200;48.810;12.352;2023-04-03T02:26:21;98146.63;;;2.47;66.21
74675;BME280;63200;48.810;12.352;2023-04-03T02:28:47;98148.84;;;2.50;65.92
74675;BME280;63200;48.810;12.352;2023-04-03T02:31:12;98154.66;;;2.47;66.28
74675;BME280;63200;48.810;12.352;2023-04-03T02:33:38;98136.38;;;2.31;65.49
74675;BME280;63200;48.810;12.352;2023-04-03T02:36:04;98153.00;;;2.46;66.47
74675;BME280;63200;48.810;12.352;2023-04-03T02:38:30;98145.38;;;2.43;66.38
74675;BME280;63200;48.810;12.352;2023-04-03T02:41:04;98149.53;;;2.39;65.88
74675;BME280;63200;48.810;12.352;2023-04-03T02:43:30;98096.31;;;2.11;66.01
74675;BME280;63200;48.810;12.352;2023-04-03T02:45:55;98118.56;;;2.11;66.89
74675;BME280;63200;48.810;12.352;2023-04-03T02:48:21;98140.50;;;2.33;66.25
74675;BME280;63200;48.810;12.352;2023-04-03T02:50:46;98143.59;;;2.37;67.09
74675;BME280;63200;48.810;12.352;2023-04-03T02:53:11;98144.16;;;2.39;66.11
74675;BME280;63200;48.810;12.352;2023-04-03T02:55:37;98141.28;;;2.41;66.77
74675;BME280;63200;48.810;12.352;2023-04-03T02:58:02;98134.34;;;2.33;67.26
74675;BME280;63200;48.810;12.352;2023-04-03T03:00:29;98119.94;;;2.21;66.79
74675;BME280;63200;48.810;12.352;2023-04-03T03:02:54;98148.50;;;2.40;67.04
74675;BME280;63200;48.810;12.352;2023-04-03T03:05:20;98112.78;;;2.14;67.18
74675;BME280;63200;48.810;12.352;2023-04-03T03:07:45;98140.91;;;2.37;67.13
74675;BME280;63200;48.810;12.352;2023-04-03T03:10:10;98142.56;;;2.38;67.33
74675;BME280;63200;48.810;12.352;2023-04-03T03:12:36;98146.84;;;2.39;67.27
74675;BME280;63200;48.810;12.352;2023-04-03T03:15:01;98126.13;;;2.28;67.35
74675;BME280;63200;48.810;12.352;2023-04-03T03:17:26;98147.28;;;2.36;66.92
74675;BME280;63200;48.810;12.352;2023-04-03T03:19:52;98147.09;;;2.31;67.63
74675;BME280;63200;48.810;12.352;2023-04-03T03:22:17;98152.88;;;2.35;67.06
74675;BME280;63200;48.810;12.352;2023-04-03T03:24:42;98143.19;;;2.33;66.82
74675;BME280;63200;48.810;12.352;2023-04-03T03:27:08;98138.84;;;2.32;67.38
74675;BME280;63200;48.810;12.352;2023-04-03T03:29:33;98140.72;;;2.32;67.30
74675;BME280;63200;48.810;12.352;2023-04-03T03:31:58;98138.25;;;2.30;67.13
74675;BME280;63200;48.810;12.352;2023-04-03T03:34:23;98140.75;;;2.25;67.09
74675;BME280;63200;48.810;12.352;2023-04-03T03:36:49;98130.28;;;2.17;67.36
74675;BME280;63200;48.810;12.352;2023-04-03T03:39:14;98119.59;;;2.10;67.48
74675;BME280;63200;48.810;12.352;2023-04-03T03:41:40;98149.81;;;2.24;68.13
74675;BME280;63200;48.810;12.352;2023-04-03T03:44:05;98139.09;;;2.24;67.53
74675;BME280;63200;48.810;12.352;2023-04-03T03:46:30;98150.09;;;2.16;67.91
74675;BME280;63200;48.810;12.352;2023-04-03T03:48:56;98150.44;;;2.20;68.10
74675;BME280;63200;48.810;12.352;2023-04-03T03:51:21;98147.59;;;2.21;67.94
74675;BME280;63200;48.810;12.352;2023-04-03T03:53:46;98149.47;;;2.14;67.53
74675;BME280;63200;48.810;12.352;2023-04-03T03:56:12;98152.53;;;2.17;67.89
74675;BME280;63200;48.810;12.352;2023-04-03T03:58:37;98125.63;;;1.99;67.58
74675;BME280;63200;48.810;12.352;2023-04-03T04:01:04;98143.88;;;2.15;67.84
74675;BME280;63200;48.810;12.352;2023-04-03T04:03:30;98142.28;;;2.08;68.37
74675;BME280;63200;48.810;12.352;2023-04-03T04:05:55;98137.97;;;2.07;68.85
74675;BME280;63200;48.810;12.352;2023-04-03T04:08:21;98121.53;;;1.96;68.50
74675;BME280;63200;48.810;12.352;2023-04-03T04:10:46;98137.31;;;2.11;68.70
74675;BME280;63200;48.810;12.352;2023-04-03T04:13:12;98147.63;;;2.14;68.42
74675;BME280;63200;48.810;12.352;2023-04-03T04:15:37;98153.16;;;2.13;68.58
74675;BME280;63200;48.810;12.352;2023-04-03T04:18:02;98151.13;;;2.08;68.98
74675;BME280;63200;48.810;12.352;2023-04-03T04:20:28;98151.75;;;2.04;69.33
74675;BME280;63200;48.810;12.352;2023-04-03T04:22:53;98140.88;;;2.05;69.09
74675;BME280;63200;48.810;12.352;2023-04-03T04:25:19;98142.72;;;1.98;68.56
74675;BME280;63200;48.810;12.352;2023-04-03T04:27:44;98111.09;;;1.81;68.48
74675;BME280;63200;48.810;12.352;2023-04-03T04:30:10;98150.72;;;2.05;68.63
74675;BME280;63200;48.810;12.352;2023-04-03T04:32:35;98149.31;;;2.02;68.73
74675;BME280;63200;48.810;12.352;2023-04-03T04:35:01;98151.78;;;1.97;69.00
74675;BME280;63200;48.810;12.352;2023-04-03T04:37:26;98151.16;;;2.02;69.19
74675;BME280;63200;48.810;12.352;2023-04-03T04:39:52;98147.25;;;2.04;68.86
74675;BME280;63200;48.810;12.352;2023-04-03T04:42:17;98156.31;;;2.03;69.06
74675;BME280;63200;48.810;12.352;2023-04-03T04:44:43;98154.88;;;2.00;68.65
74675;BME280;63200;48.810;12.352;2023-04-03T04:47:08;98154.88;;;2.00;69.13
74675;BME280;63200;48.810;12.352;2023-04-03T04:49:33;98156.31;;;2.03;68.90
74675;BME280;63200;48.810;12.352;2023-04-03T04:51:59;98162.09;;;2.00;68.97
74675;BME280;63200;48.810;12.352;2023-04-03T04:54:24;98160.00;;;2.02;68.86
74675;BME280;63200;48.810;12.352;2023-04-03T04:56:50;98156.31;;;2.03;69.10
74675;BME280;63200;48.810;12.352;2023-04-03T04:59:15;98162.47;;;2.04;69.09
74675;BME280;63200;48.810;12.352;2023-04-03T05:01:40;98128.22;;;1.74;68.86
74675;BME280;63200;48.810;12.352;2023-04-03T05:04:06;98160.00;;;2.02;68.94
74675;BME280;63200;48.810;12.352;2023-04-03T05:06:31;98161.91;;;1.95;69.13
74675;BME280;63200;48.810;12.352;2023-04-03T05:08:57;98163.72;;;2.01;68.83
74675;BME280;63200;48.810;12.352;2023-04-03T05:11:23;98168.28;;;2.00;69.10
74675;BME280;63200;48.810;12.352;2023-04-03T05:13:49;98176.28;;;2.07;68.58
74675;BME280;63200;48.810;12.352;2023-04-03T05:16:15;98155.53;;;1.96;68.41
74675;BME280;63200;48.810;12.352;2023-04-03T05:18:40;98155.75;;;1.88;68.61
74675;BME280;63200;48.810;12.352;2023-04-03T05:21:05;98140.72;;;1.87;68.62
74675;BME280;63200;48.810;12.352;2023-04-03T05:23:31;98175.03;;;2.10;68.97
74675;BME280;63200;48.810;12.352;2023-04-03T05:25:56;98153.63;;;2.03;68.57
74675;BME280;63200;48.810;12.352;2023-04-03T05:28:22;98173.97;;;2.17;68.89
74675;BME280;63200;48.810;12.352;2023-04-03T05:30:57;98182.44;;;2.14;69.05
74675;BME280;63200;48.810;12.352;2023-04-03T05:33:23;98185.09;;;2.21;68.49
74675;BME280;63200;48.810;12.352;2023-04-03T05:35:48;98187.56;;;2.23;68.34
74675;BME280;63200;48.810;12.352;2023-04-03T05:38:14;98173.72;;;2.26;68.79
74675;BME280;63200;48.810;12.352;2023-04-03T05:40:40;98158.13;;;2.16;69.08
74675;BME280;63200;48.810;12.352;2023-04-03T05:43:05;98186.28;;;2.32;68.43
74675;BME280;63200;48.810;12.352;2023-04-03T05:45:30;98181.31;;;2.36;67.97
74675;BME280;63200;48.810;12.352;2023-04-03T05:47:56;98191.84;;;2.30;67.75
74675;BME280;63200;48.810;12.352;2023-04-03T05:50:21;98188.50;;;2.35;68.20
74675;BME280;63200;48.810;12.352;2023-04-03T05:52:48;98171.84;;;2.33;68.09
74675;BME280;63200;48.810;12.352;2023-04-03T05:55:15;98187.44;;;2.43;67.35
74675;BME280;63200;48.810;12.352;2023-04-03T05:57:40;98144.72;;;2.16;67.10
74675;BME280;63200;48.810;12.352;2023-04-03T06:00:07;98181.66;;;2.46;66.97
74675;BME280;63200;48.810;12.352;2023-04-03T06:02:35;98194.44;;;2.50;66.82
74675;BME280;63200;48.810;12.352;2023-04-03T06:05:01;98193.81;;;2.48;65.97
74675;BME280;63200;48.810;12.352;2023-04-03T06:07:26;98201.44;;;2.52;66.16
74675;BME280;63200;48.810;12.352;2023-04-03T06:09:54;98193.97;;;2.54;66.54
74675;BME280;63200;48.810;12.352;2023-04-03T06:12:21;98177.50;;;2.57;65.76
74675;BME280;63200;48.810;12.352;2023-04-03T06:14:46;98196.59;;;2.67;65.10
74675;BME280;63200;48.810;12.352;2023-04-03T06:17:13;98190.19;;;2.68;64.93
74675;BME280;63200;48.810;12.352;2023-04-03T06:19:38;98195.50;;;2.75;65.73
74675;BME280;63200;48.810;12.352;2023-04-03T06:22:04;98199.34;;;2.86;64.92
74675;BME280;63200;48.810;12.352;2023-04-03T06:24:30;98202.09;;;2.79;63.71
74675;BME280;63200;48.810;12.352;2023-04-03T06:26:56;98166.56;;;2.58;64.05
74675;BME280;63200;48.810;12.352;2023-04-03T06:29:22;98199.44;;;2.72;64.09
74675;BME280;63200;48.810;12.352;2023-04-03T06:31:48;98201.06;;;2.80;62.85
74675;BME280;63200;48.810;12.352;2023-04-03T06:34:13;98196.63;;;2.92;62.14
74675;BME280;63200;48.810;12.352;2023-04-03T06:36:39;98207.16;;;2.94;62.48
74675;BME280;63200;48.810;12.352;2023-04-03T06:39:05;98198.84;;;3.02;62.45
74675;BME280;63200;48.810;12.352;2023-04-03T06:41:32;98204.75;;;3.11;61.21
74675;BME280;63200;48.810;12.352;2023-04-03T06:43:57;98211.53;;;3.13;61.06
74675;BME280;63200;48.810;12.352;2023-04-03T06:46:24;98213.28;;;3.01;59.34
74675;BME280;63200;48.810;12.352;2023-04-03T06:48:51;98222.63;;;2.92;60.18
74675;BME280;63200;48.810;12.352;2023-04-03T06:51:22;98214.66;;;3.10;59.15
74675;BME280;63200;48.810;12.352;2023-04-03T06:53:48;98213.19;;;3.14;59.22
74675;BME280;63200;48.810;12.352;2023-04-03T06:56:14;98183.84;;;3.20;58.41
74675;BME280;63200;48.810;12.352;2023-04-03T06:58:40;98225.84;;;3.32;58.10
74675;BME280;63200;48.810;12.352;2023-04-03T07:01:06;98227.88;;;3.37;57.88
74675;BME280;63200;48.810;12.352;2023-04-03T07:03:32;98232.09;;;3.52;57.82
74675;BME280;63200;48.810;12.352;2023-04-03T07:05:57;98230.41;;;3.57;56.68
74675;BME280;63200;48.810;12.352;2023-04-03T07:08:22;98238.19;;;3.40;57.30
74675;BME280;63200;48.810;12.352;2023-04-03T07:10:48;98242.19;;;3.31;56.86
74675;BME280;63200;48.810;12.352;2023-04-03T07:13:15;98243.50;;;3.22;57.39
74675;BME280;63200;48.810;12.352;2023-04-03T07:15:40;98243.84;;;3.25;57.46
74675;BME280;63200;48.810;12.352;2023-04-03T07:18:06;98236.59;;;3.32;57.07
74675;BME280;63200;48.810;12.352;2023-04-03T07:20:31;98248.03;;;3.46;56.02
74675;BME280;63200;48.810;12.352;2023-04-03T07:22:56;98248.91;;;3.40;55.62
74675;BME280;63200;48.810;12.352;2023-04-03T07:25:22;98257.03;;;3.33;55.38
74675;BME280;63200;48.810;12.352;2023-04-03T07:27:47;98256.63;;;3.30;54.92
74675;BME280;63200;48.810;12.352;2023-04-03T07:30:14;98239.59;;;3.43;55.23
74675;BME280;63200;48.810;12.352;2023-04-03T07:32:39;98261.34;;;3.60;54.76
74675;BME280;63200;48.810;12.352;2023-04-03T07:35:06;98264.16;;;3.14;55.38
74675;BME280;63200;48.810;12.352;2023-04-03T07:37:31;98259.22;;;3.43;55.09
74675;BME280;63200;48.810;12.352;2023-04-03T07:39:57;98260.41;;;3.47;54.90
74675;BME280;63200;48.810;12.352;2023-04-03T07:42:24;98261.81;;;3.75;54.81
74675;BME280;63200;48.810;12.352;2023-04-03T07:44:51;98271.97;;;3.73;54.11
74675;BME280;63200;48.810;12.352;2023-04-03T07:47:17;98269.66;;;3.77;55.30
74675;BME280;63200;48.810;12.352;2023-04-03T07:49:43;98263.19;;;3.84;55.04
74675;BME280;63200;48.810;12.352;2023-04-03T07:52:08;98274.72;;;4.10;55.04
74675;BME280;63200;48.810;12.352;2023-04-03T07:54:34;98277.09;;;4.19;54.88
74675;BME280;63200;48.810;12.352;2023-04-03T07:57:00;98253.13;;;3.98;55.78
74675;BME280;63200;48.810;12.352;2023-04-03T07:59:26;98275.38;;;4.24;54.14
74675;BME280;63200;48.810;12.352;2023-04-03T08:01:51;98260.28;;;4.23;55.48
74675;BME280;63200;48.810;12.352;2023-04-03T08:04:16;98275.06;;;4.70;53.76
74675;BME280;63200;48.810;12.352;2023-04-03T08:06:42;98282.19;;;4.27;54.29
74675;BME280;63200;48.810;12.352;2023-04-03T08:09:07;98260.19;;;4.18;53.06
74675;BME280;63200;48.810;12.352;2023-04-03T08:11:33;98285.59;;;4.71;52.15
74675;BME280;63200;48.810;12.352;2023-04-03T08:13:58;98280.81;;;4.73;51.33
74675;BME280;63200;48.810;12.352;2023-04-03T08:16:24;98276.94;;;4.50;52.12
74675;BME280;63200;48.810;12.352;2023-04-03T08:18:53;98260.84;;;4.32;52.67
74675;BME280;63200;48.810;12.352;2023-04-03T08:21:19;98290.06;;;5.08;51.92
74675;BME280;63200;48.810;12.352;2023-04-03T08:23:44;98275.56;;;4.78;50.32
74675;BME280;63200;48.810;12.352;2023-04-03T08:26:15;98284.91;;;5.06;50.65
74675;BME280;63200;48.810;12.352;2023-04-03T08:28:41;98279.78;;;5.05;50.49
74675;BME280;63200;48.810;12.352;2023-04-03T08:31:09;98286.00;;;5.17;51.50
74675;BME280;63200;48.810;12.352;2023-04-03T08:33:36;98289.41;;;5.12;49.97
74675;BME280;63200;48.810;12.352;2023-04-03T08:36:08;98288.97;;;4.97;49.28
74675;BME280;63200;48.810;12.352;2023-04-03T08:38:33;98289.81;;;4.97;48.05
74675;BME280;63200;48.810;12.352;2023-04-03T08:46:11;98289.53;;;4.87;47.96
74675;BME280;63200;48.810;12.352;2023-04-03T08:48:42;98292.91;;;4.82;48.06
74675;BME280;63200;48.810;12.352;2023-04-03T08:51:14;98289.03;;;4.78;47.12
74675;BME280;63200;48.810;12.352;2023-04-03T08:53:45;98252.94;;;4.67;46.09
74675;BME280;63200;48.810;12.352;2023-04-03T08:56:15;98298.91;;;4.66;46.22
74675;BME280;63200;48.810;12.352;2023-04-03T08:58:50;98267.69;;;4.65;44.85
74675;BME280;63200;48.810;12.352;2023-04-03T09:04:01;98306.72;;;4.86;45.99
74675;BME280;63200;48.810;12.352;2023-04-03T09:06:29;98299.38;;;4.93;44.67
74675;BME280;63200;48.810;12.352;2023-04-03T09:09:12;98304.91;;;4.98;44.24
74675;BME280;63200;48.810;12.352;2023-04-03T09:14:48;98314.66;;;5.42;44.59
74675;BME280;63200;48.810;12.352;2023-04-03T09:17:24;98313.78;;;5.72;43.52
74675;BME280;63200;48.810;12.352;2023-04-03T09:20:02;98315.22;;;5.32;41.40
74675;BME280;63200;48.810;12.352;2023-04-03T09:22:37;98310.53;;;5.39;43.08
74675;BME280;63200;48.810;12.352;2023-04-03T09:25:19;98318.44;;;5.64;42.19
74675;BME280;63200;48.810;12.352;2023-04-03T09:27:45;98293.81;;;5.49;40.52
74675;BME280;63200;48.810;12.352;2023-04-03T09:30:15;98320.84;;;5.42;41.14
74675;BME280;63200;48.810;12.352;2023-04-03T09:32:43;98315.44;;;5.42;40.62
74675;BME280;63200;48.810;12.352;2023-04-03T09:35:23;98303.16;;;6.77;38.69
74675;BME280;63200;48.810;12.352;2023-04-03T09:37:52;98309.97;;;7.08;38.03
74675;BME280;63200;48.810;12.352;2023-04-03T09:40:34;98302.28;;;7.00;37.21
74675;BME280;63200;48.810;12.352;2023-04-03T09:43:26;98280.91;;;7.61;36.24
74675;BME280;63200;48.810;12.352;2023-04-03T09:45:52;98305.50;;;7.94;36.50
74675;BME280;63200;48.810;12.352;2023-04-03T09:48:20;98246.72;;;8.06;34.39
74675;BME280;63200;48.810;12.352;2023-04-03T09:51:02;98302.03;;;7.98;35.99
74675;BME280;63200;48.810;12.352;2023-04-03T09:53:38;98294.34;;;8.07;35.37
74675;BME280;63200;48.810;12.352;2023-04-03T09:56:18;98289.19;;;7.89;35.70
74675;BME280;63200;48.810;12.352;2023-04-03T09:59:08;98305.59;;;6.90;36.36
74675;BME280;63200;48.810;12.352;2023-04-03T10:01:39;98295.88;;;5.89;37.98
74675;BME280;63200;48.810;12.352;2023-04-03T10:04:14;98294.91;;;5.72;39.06
74675;BME280;63200;48.810;12.352;2023-04-03T10:06:43;98295.38;;;5.92;38.06
74675;BME280;63200;48.810;12.352;2023-04-03T10:09:19;98305.03;;;6.00;38.71
74675;BME280;63200;48.810;12.352;2023-04-03T10:12:11;98288.00;;;5.64;38.85
74675;BME280;63200;48.810;12.352;2023-04-03T10:20:27;98287.41;;;5.74;37.91
74675;BME280;63200;48.810;12.352;2023-04-03T10:25:49;98297.16;;;6.87;34.89
74675;BME280;63200;48.810;12.352;2023-04-03T10:28:27;98302.41;;;6.93;35.11
74675;BME280;63200;48.810;12.352;2023-04-03T10:33:45;98288.22;;;8.51;32.05
74675;BME280;63200;48.810;12.352;2023-04-03T10:39:15;98285.50;;;8.34;29.89
74675;BME280;63200;48.810;12.352;2023-04-03T10:41:58;98282.63;;;9.07;31.08
74675;BME280;63200;48.810;12.352;2023-04-03T10:47:10;98292.91;;;8.83;30.57
74675;BME280;63200;48.810;12.352;2023-04-03T10:57:39;98277.56;;;7.88;32.07
74675;BME280;63200;48.810;12.352;2023-04-03T11:00:21;98246.28;;;9.03;30.86
74675;BME280;63200;48.810;12.352;2023-04-03T11:02:59;98268.31;;;9.72;30.99
74675;BME280;63200;48.810;12.352;2023-04-03T11:05:35;98250.00;;;9.52;30.77
74675;BME280;63200;48.810;12.352;2023-04-03T11:08:13;98269.41;;;9.76;29.94
74675;BME280;63200;48.810;12.352;2023-04-03T11:10:45;98267.69;;;9.05;31.13
74675;BME280;63200;48.810;12.352;2023-04-03T11:13:18;98269.13;;;8.63;32.69
74675;BME280;63200;48.810;12.352;2023-04-03T11:15:45;98263.38;;;7.98;32.29
74675;BME280;63200;48.810;12.352;2023-04-03T11:18:22;98271.91;;;7.56;32.80
74675;BME280;63200;48.810;12.352;2023-04-03T11:21:07;98274.13;;;7.93;31.65
74675;BME280;63200;48.810;12.352;2023-04-03T11:23:39;98258.50;;;7.61;29.68
74675;BME280;63200;48.810;12.352;2023-04-03T11:26:09;98265.00;;;7.99;32.81
74675;BME280;63200;48.810;12.352;2023-04-03T11:28:36;98261.38;;;9.54;30.75
74675;BME280;63200;48.810;12.352;2023-04-03T11:31:27;98262.69;;;9.46;29.58
74675;BME280;63200;48.810;12.352;2023-04-03T11:36:43;98258.59;;;8.89;31.96
74675;BME280;63200;48.810;12.352;2023-04-03T11:47:57;98256.06;;;9.04;29.22
74675;BME280;63200;48.810;12.352;2023-04-03T12:13:38;98243.00;;;8.52;33.60
74675;BME280;63200;48.810;12.352;2023-04-03T12:16:05;98233.09;;;8.40;31.86
74675;BME280;63200;48.810;12.352;2023-04-03T12:21:16;98248.59;;;7.04;34.26
74675;BME280;63200;48.810;12.352;2023-04-03T12:24:04;98235.75;;;6.94;34.37
74675;BME280;63200;48.810;12.352;2023-04-03T12:28:57;98240.22;;;6.88;33.68
74675;BME280;63200;48.810;12.352;2023-04-03T12:31:25;98251.34;;;7.55;33.82
74675;BME280;63200;48.810;12.352;2023-04-03T12:34:35;98220.59;;;7.95;32.43
74675;BME280;63200;48.810;12.352;2023-04-03T12:45:46;98196.78;;;6.90;32.06
74675;BME280;63200;48.810;12.352;2023-04-03T12:48:20;98222.34;;;8.67;31.11
74675;BME280;63200;48.810;12.352;2023-04-03T12:50:48;98226.66;;;9.50;30.48
74675;BME280;63200;48.810;12.352;2023-04-03T12:53:28;98222.38;;;8.95;30.61
74675;BME280;63200;48.810;12.352;2023-04-03T12:56:19;98230.28;;;7.74;31.02
74675;BME280;63200;48.810;12.352;2023-04-03T12:58:45;98227.44;;;7.12;33.39
74675;BME280;63200;48.810;12.352;2023-04-03T13:01:13;98223.38;;;8.00;32.15
74675;BME280;63200;48.810;12.352;2023-04-03T13:03:43;98228.66;;;8.73;30.72
74675;BME280;63200;48.810;12.352;2023-04-03T13:06:24;98230.19;;;8.25;29.13
74675;BME280;63200;48.810;12.352;2023-04-03T13:08:54;98196.34;;;7.27;31.92
74675;BME280;63200;48.810;12.352;2023-04-03T13:11:22;98202.56;;;7.44;30.92
74675;BME280;63200;48.810;12.352;2023-04-03T13:13:59;98222.94;;;8.47;31.64
74675;BME280;63200;48.810;12.352;2023-04-03T13:16:24;98221.84;;;8.98;31.03
74675;BME280;63200;48.810;12.352;2023-04-03T13:18:52;98227.25;;;9.25;31.04
74675;BME280;63200;48.810;12.352;2023-04-03T13:21:21;98206.88;;;8.63;32.45
74675;BME280;63200;48.810;12.352;2023-04-03T13:23:50;98232.13;;;8.29;32.86
74675;BME280;63200;48.810;12.352;2023-04-03T13:26:18;98216.69;;;7.68;31.93
74675;BME280;63200;48.810;12.352;2023-04-03T13:28:45;98228.84;;;7.32;34.13
74675;BME280;63200;48.810;12.352;2023-04-03T13:31:26;98214.53;;;8.05;32.05
74675;BME280;63200;48.810;12.352;2023-04-03T13:36:23;98204.97;;;8.63;30.86
74675;BME280;63200;48.810;12.352;2023-04-03T13:39:07;98220.00;;;8.76;30.99
74675;BME280;63200;48.810;12.352;2023-04-03T13:42:16;98207.00;;;8.51;31.12
74675;BME280;63200;48.810;12.352;2023-04-03T13:44:45;98209.38;;;8.70;31.51
74675;BME280;63200;48.810;12.352;2023-04-03T13:47:23;98205.97;;;8.79;31.23
74675;BME280;63200;48.810;12.352;2023-04-03T13:50:12;98218.44;;;8.14;31.51
74675;BME280;63200;48.810;12.352;2023-04-03T13:52:41;98212.06;;;7.30;32.63
74675;BME280;63200;48.810;12.352;2023-04-03T13:57:59;98185.72;;;6.45;34.56
74675;BME280;63200;48.810;12.352;2023-04-03T14:02:59;98188.75;;;6.49;35.06
74675;BME280;63200;48.810;12.352;2023-04-03T14:05:25;98189.47;;;6.73;36.61
74675;BME280;63200;48.810;12.352;2023-04-03T14:07:54;98200.09;;;6.63;34.71
74675;BME280;63200;48.810;12.352;2023-04-03T14:10:20;98212.84;;;6.67;34.18
74675;BME280;63200;48.810;12.352;2023-04-03T14:12:46;98183.38;;;6.78;33.85
74675;BME280;63200;48.810;12.352;2023-04-03T14:15:18;98189.09;;;6.81;33.67
74675;BME280;63200;48.810;12.352;2023-04-03T14:17:45;98208.91;;;7.72;33.61
74675;BME280;63200;48.810;12.352;2023-04-03T14:20:18;98207.00;;;7.33;31.55
74675;BME280;63200;48.810;12.352;2023-04-03T14:22:44;98212.19;;;6.60;34.06
74675;BME280;63200;48.810;12.352;2023-04-03T14:25:09;98208.94;;;6.46;33.87
74675;BME280;63200;48.810;12.352;2023-04-03T14:27:38;98199.09;;;6.98;33.76
74675;BME280;63200;48.810;12.352;2023-04-03T14:30:08;98210.31;;;7.75;32.87
74675;BME280;63200;48.810;12.352;2023-04-03T14:32:34;98203.59;;;7.77;31.09
74675;BME280;63200;48.810;12.352;2023-04-03T14:35:00;98189.03;;;7.78;31.04
74675;BME280;63200;48.810;12.352;2023-04-03T14:37:28;98203.31;;;7.23;33.31
74675;BME280;63200;48.810;12.352;2023-04-03T14:39:56;98195.75;;;7.25;33.20
74675;BME280;63200;48.810;12.352;2023-04-03T14:42:28;98199.22;;;7.37;35.20
74675;BME280;63200;48.810;12.352;2023-04-03T14:44:54;98183.19;;;7.30;33.88
74675;BME280;63200;48.810;12.352;2023-04-03T14:47:23;98197.75;;;6.83;35.35
74675;BME280;63200;48.810;12.352;2023-04-03T14:49:49;98199.00;;;6.64;34.87